Time;durP1;ratioP1;P1;durP2;ratioP2;P2;SDS_P1;SDS_P2;PMS_P1;PMS_P2;Temp;Humidity;BMP_temperature;BMP_pressure;BME280_temperature;BME280_humidity;BME280_pressure;Samples;Min_cycle;Max_cycle;Signal;HPM_P1;HPM_P2
2022/11/18 00:01:30;;;;;;;32.35;21.92;;;;;;;1.04;100.00;152806.44;5010731;28;20026;-75
2022/11/18 00:03:56;;;;;;;34.72;23.77;;;;;;;1.05;100.00;152807.69;4992717;28;20092;-74
2022/11/18 00:06:24;;;;;;;35.13;23.05;;;;;;;1.02;100.00;152800.03;4991132;28;20038;-76
2022/11/18 00:08:51;;;;;;;32.30;22.90;;;;;;;0.99;100.00;152793.66;4995784;28;20770;-74
2022/11/18 00:14:19;;;;;;;33.38;23.25;;;;;;;0.97;100.00;152788.56;5009556;28;20033;-74
2022/11/18 00:16:55;;;;;;;35.40;23.38;;;;;;;0.97;100.00;152788.56;5009358;28;20034;-76
2022/11/18 00:19:27;;;;;;;33.42;22.80;;;;;;;0.95;100.00;152784.75;5025882;28;20042;-77
2022/11/18 00:21:52;;;;;;;34.58;24.10;;;;;;;0.96;100.00;152787.31;5007110;28;20061;-77
2022/11/18 00:24:19;;;;;;;32.90;23.13;;;;;;;0.95;100.00;152784.75;4991205;28;20111;-76
2022/11/18 00:26:45;;;;;;;34.30;23.13;;;;;;;0.92;100.00;152775.81;5010253;28;20038;-76
2022/11/18 00:29:11;;;;;;;34.88;23.48;;;;;;;0.89;100.00;152769.47;4980508;28;20041;-74
2022/11/18 00:31:37;;;;;;;36.22;22.98;;;;;;;0.85;100.00;152757.97;4988153;28;20101;-75
2022/11/18 00:34:04;;;;;;;37.88;24.15;;;;;;;0.88;100.00;152766.91;5004326;28;20469;-76
2022/11/18 00:36:30;;;;;;;35.50;24.17;;;;;;;0.86;100.00;152760.53;4997526;28;20034;-75
2022/11/18 00:38:55;;;;;;;33.58;22.70;;;;;;;0.80;100.00;152745.25;5012564;28;20036;-74
2022/11/18 00:41:21;;;;;;;33.92;23.27;;;;;;;0.77;100.00;152738.84;5009989;28;20041;-75
2022/11/18 00:43:47;;;;;;;36.47;24.15;;;;;;;0.74;100.00;152731.25;4964049;28;20041;-74
2022/11/18 00:46:13;;;;;;;36.63;23.98;;;;;;;0.75;100.00;152733.75;4974787;28;20060;-76
2022/11/18 00:48:39;;;;;;;37.83;24.98;;;;;;;0.74;100.00;152731.25;5019751;28;20041;-79
2022/11/18 00:51:14;;;;;;;36.83;24.95;;;;;;;0.73;100.00;152728.66;4992553;28;20038;-78
2022/11/18 00:53:40;;;;;;;36.60;24.15;;;;;;;0.70;100.00;152721.06;4992646;28;20516;-75
2022/11/18 00:56:05;;;;;;;37.63;24.65;;;;;;;0.67;100.00;152714.66;5008732;28;20117;-75
2022/11/18 00:58:31;;;;;;;39.60;25.17;;;;;;;0.64;100.00;152707.03;5001074;28;20084;-76
2022/11/18 01:00:56;;;;;;;36.35;25.15;;;;;;;0.63;100.00;152704.47;5006496;28;20029;-77
2022/11/18 01:03:24;;;;;;;37.47;25.25;;;;;;;0.63;100.00;152703.22;4978116;28;20034;-74
2022/11/18 01:05:50;;;;;;;36.35;24.00;;;;;;;0.62;100.00;152701.91;5022324;28;20030;-75
2022/11/18 01:08:18;;;;;;;36.38;24.48;;;;;;;0.58;100.00;152691.72;5007105;28;20110;-75
2022/11/18 01:10:45;;;;;;;35.88;23.92;;;;;;;0.52;100.00;152676.44;4992495;28;20034;-77
2022/11/18 01:13:18;;;;;;;39.35;25.15;;;;;;;0.52;100.00;152676.44;5007723;28;20117;-75
2022/11/18 01:15:57;;;;;;;39.38;24.58;;;;;;;0.48;100.00;152667.50;4991996;28;20057;-75
2022/11/18 01:18:26;;;;;;;39.40;24.90;;;;;;;0.49;100.00;152668.78;5003374;28;20046;-75
2022/11/18 01:20:52;;;;;;;39.45;24.92;;;;;;;0.45;100.00;152659.84;4982866;28;20034;-77
2022/11/18 01:23:19;;;;;;;37.67;24.02;;;;;;;0.46;100.00;152662.44;4972125;28;20676;-74
2022/11/18 01:25:46;;;;;;;38.08;24.48;;;;;;;0.44;100.00;152656.06;4988446;28;20042;-75
2022/11/18 01:28:12;;;;;;;38.63;25.50;;;;;;;0.42;100.00;152650.97;4989615;28;20132;-75
2022/11/18 01:30:40;;;;;;;40.22;26.25;;;;;;;0.45;100.00;152658.59;5008179;28;20113;-76
2022/11/18 01:33:07;;;;;;;40.88;26.08;;;;;;;0.48;100.00;152666.25;5008039;28;20042;-76
2022/11/18 01:35:41;;;;;;;41.92;26.88;;;;;;;0.43;100.00;152653.50;4969994;28;20095;-74
2022/11/18 01:38:09;;;;;;;40.58;25.95;;;;;;;0.45;100.00;152659.84;4981822;28;20046;-75
2022/11/18 01:40:35;;;;;;;42.50;26.60;;;;;;;0.44;100.00;152657.34;5004427;28;20044;-75
2022/11/18 01:43:01;;;;;;;40.83;27.15;;;;;;;0.42;100.00;152650.97;5004266;28;20038;-76
2022/11/18 01:45:36;;;;;;;40.63;26.00;;;;;;;0.41;100.00;152648.41;4996111;28;20045;-75
2022/11/18 01:48:35;;;;;;;41.97;25.65;;;;;;;0.40;100.00;152647.16;4981236;28;20038;-76
2022/11/18 01:51:04;;;;;;;38.70;25.30;;;;;;;0.41;100.00;152648.41;4971620;28;20069;-74
2022/11/18 01:53:34;;;;;;;39.42;26.73;;;;;;;0.39;100.00;152645.84;4994915;28;20091;-75
2022/11/18 01:56:06;;;;;;;39.83;26.17;;;;;;;0.37;100.00;152640.75;5009169;28;20036;-77
2022/11/18 01:58:36;;;;;;;45.03;27.80;;;;;;;0.35;100.00;152634.41;4988785;28;20785;-76
2022/11/18 02:01:04;;;;;;;42.25;27.65;;;;;;;0.39;100.00;152644.59;4991141;28;20397;-76
2022/11/18 02:03:30;;;;;;;41.42;26.73;;;;;;;0.42;100.00;152650.97;4980981;28;20089;-75
2022/11/18 02:06:00;;;;;;;40.70;27.08;;;;;;;0.37;100.00;152639.50;4988592;28;20038;-76
2022/11/18 02:08:27;;;;;;;39.88;27.13;;;;;;;0.41;100.00;152648.41;5000549;28;20122;-75
2022/11/18 02:10:52;;;;;;;43.67;27.85;;;;;;;0.39;100.00;152644.59;5008351;28;20050;-76
2022/11/18 02:13:18;;;;;;;43.50;28.95;;;;;;;0.38;100.00;152642.06;5023012;28;20043;-75
2022/11/18 02:15:53;;;;;;;41.40;28.60;;;;;;;0.38;100.00;152643.31;4995709;28;20034;-76
2022/11/18 02:18:34;;;;;;;47.78;29.95;;;;;;;0.42;100.00;152650.97;5006857;28;20100;-75
2022/11/18 02:21:16;;;;;;;46.83;30.70;;;;;;;0.36;100.00;152638.22;4990183;28;20403;-76
2022/11/18 02:24:18;;;;;;;45.50;30.15;;;;;;;0.41;100.00;152649.66;4978283;28;20476;-76
2022/11/18 02:27:18;;;;;;;45.72;30.60;;;;;;;0.42;100.00;152652.25;4991541;28;20049;-76
2022/11/18 02:30:00;;;;;;;44.45;29.58;;;;;;;0.39;100.00;152644.59;5000760;28;20487;-75
2022/11/18 02:32:40;;;;;;;45.08;31.25;;;;;;;0.38;100.00;152643.31;5006887;28;20111;-76
2022/11/18 02:35:18;;;;;;;47.58;31.30;;;;;;;0.35;100.00;152635.66;5016591;28;20449;-74
2022/11/18 02:37:55;;;;;;;50.90;32.53;;;;;;;0.38;100.00;152642.06;5006931;28;20037;-75
2022/11/18 02:40:24;;;;;;;46.72;31.80;;;;;;;0.37;100.00;152640.75;4991831;28;21185;-75
2022/11/18 02:42:55;;;;;;;45.17;30.35;;;;;;;0.33;100.00;152630.56;5004409;28;20858;-76
2022/11/18 02:45:22;;;;;;;45.53;30.85;;;;;;;0.30;100.00;152621.66;5004167;28;20145;-76
2022/11/18 02:47:50;;;;;;;48.08;31.75;;;;;;;0.29;100.00;152619.13;5004074;28;20400;-76
2022/11/18 02:50:21;;;;;;;43.97;30.67;;;;;;;0.35;100.00;152634.41;4986542;28;20049;-74
2022/11/18 02:52:53;;;;;;;47.17;30.55;;;;;;;0.26;100.00;152612.72;4990222;28;20065;-74
2022/11/18 02:55:21;;;;;;;47.85;30.02;;;;;;;0.25;100.00;152610.19;4989954;28;20792;-76
2022/11/18 02:57:47;;;;;;;45.08;30.23;;;;;;;0.23;100.00;152603.81;4989883;28;20456;-74
2022/11/18 03:00:14;;;;;;;45.10;30.52;;;;;;;0.22;100.00;152601.28;5022874;28;20034;-75
2022/11/18 03:02:43;;;;;;;44.38;29.95;;;;;;;0.20;100.00;152597.44;4990008;28;20491;-74
2022/11/18 03:05:18;;;;;;;46.42;31.38;;;;;;;0.20;100.00;152597.44;5005101;28;20034;-75
2022/11/18 03:07:50;;;;;;;48.70;31.15;;;;;;;0.21;100.00;152600.03;4990358;28;20034;-75
2022/11/18 03:10:20;;;;;;;41.88;29.55;;;;;;;0.22;100.00;152601.28;4988999;28;20037;-75
2022/11/18 03:13:13;;;;;;;43.17;29.90;;;;;;;0.21;100.00;152600.03;4990164;28;20046;-73
2022/11/18 03:15:47;;;;;;;;;;;;;;;0.18;100.00;152593.63;5007964;28;20072;-75
2022/11/18 03:18:25;;;;;;;47.10;29.08;;;;;;;0.18;100.00;152593.63;5006946;28;20008;-75
2022/11/18 03:20:57;;;;;;;43.25;29.02;;;;;;;0.16;100.00;152587.28;5004394;28;20042;-75
2022/11/18 03:23:29;;;;;;;45.00;29.85;;;;;;;0.17;100.00;152591.09;5022387;28;20054;-74
2022/11/18 03:26:04;;;;;;;41.92;29.15;;;;;;;0.19;100.00;152594.94;5006799;28;20025;-76
2022/11/18 03:28:45;;;;;;;43.72;29.90;;;;;;;0.18;100.00;152593.63;5003689;28;20065;-76
2022/11/18 03:31:17;;;;;;;44.55;30.77;;;;;;;0.16;100.00;152588.53;4995037;28;20218;-74
2022/11/18 03:33:49;;;;;;;42.78;28.10;;;;;;;0.14;100.00;152583.44;4990851;28;20110;-74
2022/11/18 03:36:16;;;;;;;45.08;30.38;;;;;;;0.10;100.00;152572.00;4998931;28;20038;-76
2022/11/18 03:38:47;;;;;;;44.65;30.20;;;;;;;0.12;100.00;152577.09;5011447;28;20469;-75
2022/11/18 03:41:16;;;;;;;42.05;28.63;;;;;;;0.09;100.00;152569.44;5006866;28;20126;-75
2022/11/18 03:43:54;;;;;;;46.70;30.73;;;;;;;0.07;100.00;152565.59;4984455;28;20121;-75
2022/11/18 03:46:27;;;;;;;41.83;28.77;;;;;;;0.10;100.00;152573.25;5007083;28;20038;-76
2022/11/18 03:48:55;;;;;;;42.38;29.15;;;;;;;0.14;100.00;152582.19;4987570;28;20508;-75
2022/11/18 03:51:27;;;;;;;43.15;29.10;;;;;;;0.08;100.00;152568.16;4987894;28;20480;-75
2022/11/18 03:54:02;;;;;;;48.30;28.38;;;;;;;0.09;100.00;152570.69;5003969;28;20503;-75
2022/11/18 03:56:35;;;;;;;41.85;28.13;;;;;;;0.08;100.00;152566.91;4997125;28;20045;-77
2022/11/18 03:59:15;;;;;;;41.42;27.30;;;;;;;0.03;100.00;152555.41;4987248;28;20133;-75
2022/11/18 04:01:50;;;;;;;41.33;28.40;;;;;;;0.04;100.00;152558.00;5018267;28;20113;-75
2022/11/18 04:04:15;;;;;;;40.25;27.02;;;;;;;0.04;100.00;152558.00;5004663;28;20033;-75
2022/11/18 04:06:47;;;;;;;41.38;27.83;;;;;;;0.03;100.00;152554.16;5006229;28;20042;-75
2022/11/18 04:09:19;;;;;;;42.15;28.73;;;;;;;0.03;100.00;152555.41;4988272;28;20038;-77
2022/11/18 04:12:04;;;;;;;38.67;26.75;;;;;;;0.01;100.00;152549.06;5003175;28;20048;-75
2022/11/18 04:14:38;;;;;;;37.83;26.90;;;;;;;0.05;100.00;152559.25;4997598;28;20128;-76
2022/11/18 04:17:11;;;;;;;39.20;26.70;;;;;;;0.08;100.00;152566.91;4995100;28;20030;-76
2022/11/18 04:19:37;;;;;;;38.58;26.80;;;;;;;0.03;100.00;152554.16;4987013;28;20034;-75
2022/11/18 04:22:03;;;;;;;38.72;26.63;;;;;;;0.04;100.00;152556.69;4965266;28;20484;-75
2022/11/18 04:24:28;;;;;;;36.80;26.23;;;;;;;0.02;100.00;152551.59;4976549;28;20027;-74
2022/11/18 04:26:54;;;;;;;39.53;27.00;;;;;;;0.02;100.00;152551.59;4978439;28;20034;-76
2022/11/18 04:29:20;;;;;;;39.13;26.35;;;;;;;-0.01;100.00;152546.50;5007567;28;21034;-77
2022/11/18 04:31:45;;;;;;;36.67;26.92;;;;;;;-0.03;100.00;152540.16;4977237;28;20026;-76
2022/11/18 04:34:11;;;;;;;39.92;27.73;;;;;;;-0.02;100.00;152542.66;5007040;28;20041;-75
2022/11/18 04:36:37;;;;;;;38.47;26.42;;;;;;;0.01;100.00;152549.06;4977323;28;20419;-77
2022/11/18 04:39:02;;;;;;;37.00;26.55;;;;;;;-0.06;100.00;152533.78;5006284;28;20114;-75
2022/11/18 04:44:12;;;;;;;39.20;26.75;;;;;;;-0.08;100.00;152528.66;5000757;28;20017;-74
2022/11/18 04:46:39;;;;;;;38.30;27.17;;;;;;;-0.04;100.00;152537.56;4999803;28;20832;-75
2022/11/18 04:49:06;;;;;;;37.33;27.63;;;;;;;-0.07;100.00;152529.97;5024369;28;20064;-76
2022/11/18 04:51:32;;;;;;;40.40;27.95;;;;;;;-0.07;100.00;152529.97;5009177;28;20443;-75
2022/11/18 04:53:57;;;;;;;40.97;28.70;;;;;;;-0.12;100.00;152517.22;4974754;28;20149;-74
2022/11/18 04:56:23;;;;;;;41.20;28.20;;;;;;;-0.12;100.00;152517.22;5023636;28;20034;-75
2022/11/18 04:58:49;;;;;;;40.15;27.20;;;;;;;-0.13;100.00;152514.66;4999859;28;20034;-76
2022/11/18 05:01:14;;;;;;;41.67;29.17;;;;;;;-0.15;100.00;152509.56;4990091;28;20045;-76
2022/11/18 05:03:40;;;;;;;40.63;28.55;;;;;;;-0.20;100.00;152499.38;5006959;28;20121;-74
2022/11/18 05:06:05;;;;;;;40.35;29.08;;;;;;;-0.22;100.00;152493.03;4992302;28;20042;-75
2022/11/18 05:08:31;;;;;;;43.33;29.30;;;;;;;-0.18;100.00;152503.22;4989563;28;20092;-76
2022/11/18 05:12:47;;;;;;;41.72;28.88;;;;;;;-0.21;100.00;152496.88;4980933;28;20063;-73
2022/11/18 05:13:42;;;;;;;40.50;28.20;;;;;;;-0.21;100.00;152496.88;4999221;28;20125;-76
2022/11/18 05:16:07;;;;;;;43.35;30.65;;;;;;;-0.23;100.00;152491.78;5007370;28;20112;-74
2022/11/18 05:18:33;;;;;;;41.50;28.58;;;;;;;-0.21;100.00;152495.56;4992152;28;20045;-75
2022/11/18 05:20:58;;;;;;;45.08;30.60;;;;;;;-0.19;100.00;152500.66;5008340;28;20080;-75
2022/11/18 05:23:24;;;;;;;43.28;30.45;;;;;;;-0.20;100.00;152498.13;5009101;28;20033;-75
2022/11/18 05:25:50;;;;;;;43.97;30.35;;;;;;;-0.22;100.00;152493.03;4989906;28;20207;-75
2022/11/18 05:28:15;;;;;;;50.03;32.00;;;;;;;-0.22;100.00;152493.03;4991361;28;20474;-75
2022/11/18 05:30:41;;;;;;;44.10;30.20;;;;;;;-0.26;100.00;152482.84;4992047;28;20076;-75
2022/11/18 05:33:06;;;;;;;43.60;30.50;;;;;;;-0.22;100.00;152493.03;4990840;28;20042;-75
2022/11/18 05:35:35;;;;;;;44.42;30.83;;;;;;;-0.22;100.00;152494.28;4988400;28;20045;-76
2022/11/18 05:38:01;;;;;;;44.28;31.05;;;;;;;-0.24;100.00;152487.94;4992992;28;20037;-76
2022/11/18 05:40:27;;;;;;;45.55;31.95;;;;;;;-0.26;100.00;152482.84;4991728;28;20146;-75
2022/11/18 05:43:10;;;;;;;45.50;31.45;;;;;;;-0.25;100.00;152485.38;4992074;28;20128;-75
2022/11/18 05:45:37;;;;;;;47.28;32.22;;;;;;;-0.28;100.00;152477.75;4991265;28;20458;-76
2022/11/18 05:48:04;;;;;;;47.17;33.83;;;;;;;-0.30;100.00;152472.63;5004685;28;20042;-75
2022/11/18 05:50:32;;;;;;;46.92;31.75;;;;;;;-0.37;100.00;152456.09;5008814;28;20038;-74
2022/11/18 05:52:58;;;;;;;46.65;32.70;;;;;;;-0.35;100.00;152459.94;5007991;28;20493;-74
2022/11/18 05:55:28;;;;;;;48.67;33.75;;;;;;;-0.36;100.00;152457.38;4990985;28;20042;-75
2022/11/18 05:57:54;;;;;;;50.83;33.85;;;;;;;-0.41;100.00;152445.94;4991788;28;20050;-75
2022/11/18 06:00:20;;;;;;;51.33;34.97;;;;;;;-0.38;100.00;152452.28;4991049;28;20065;-75
2022/11/18 06:02:49;;;;;;;48.85;33.28;;;;;;;-0.48;100.00;152429.34;4978697;28;20038;-76
2022/11/18 06:05:17;;;;;;;53.53;34.88;;;;;;;-0.41;100.00;152447.19;4988722;28;20033;-75
2022/11/18 06:07:44;;;;;;;49.88;34.92;;;;;;;-0.43;100.00;152440.84;5008999;28;20515;-73
2022/11/18 06:10:17;;;;;;;49.08;33.75;;;;;;;-0.45;100.00;152435.75;4989076;28;20034;-74
2022/11/18 06:12:46;;;;;;;48.10;33.72;;;;;;;-0.47;100.00;152430.63;5007590;28;20066;-73
2022/11/18 06:15:20;;;;;;;50.00;33.65;;;;;;;-0.47;100.00;152430.63;5007685;28;20054;-76
2022/11/18 06:17:51;;;;;;;47.95;32.78;;;;;;;-0.49;100.00;152425.53;4991352;28;20040;-75
2022/11/18 06:20:21;;;;;;;49.75;33.55;;;;;;;-0.50;100.00;152424.25;4992348;28;20057;-73
2022/11/18 06:22:54;;;;;;;50.25;34.85;;;;;;;-0.54;100.00;152414.09;4973890;28;20499;-75
2022/11/18 06:25:21;;;;;;;48.40;33.97;;;;;;;-0.57;100.00;152405.16;5011379;28;20037;-75
2022/11/18 06:27:47;;;;;;;52.42;33.72;;;;;;;-0.52;100.00;152417.91;5010299;28;20025;-76
2022/11/18 06:30:13;;;;;;;49.35;33.88;;;;;;;-0.56;100.00;152407.75;4973587;28;20034;-76
2022/11/18 06:32:39;;;;;;;52.67;35.33;;;;;;;-0.62;100.00;152395.00;5005771;28;20042;-75
2022/11/18 06:35:05;;;;;;;47.92;33.78;;;;;;;-0.60;100.00;152398.81;4988540;28;20038;-76
2022/11/18 06:37:31;;;;;;;52.03;35.15;;;;;;;-0.65;100.00;152387.34;4990488;28;20038;-75
2022/11/18 06:39:57;;;;;;;50.53;33.88;;;;;;;-0.67;100.00;152382.25;4981031;28;20553;-76
2022/11/18 06:45:07;;;;;;;55.13;34.92;;;;;;;-0.63;100.00;152391.16;5018102;28;20105;-74
2022/11/18 06:47:33;;;;;;;53.75;35.72;;;;;;;-0.68;100.00;152378.44;4995573;28;20026;-74
2022/11/18 06:49:59;;;;;;;56.25;35.80;;;;;;;-0.69;100.00;152377.16;4965700;28;20030;-74
2022/11/18 06:52:24;;;;;;;57.53;35.53;;;;;;;-0.66;100.00;152384.81;5007829;28;20034;-75
2022/11/18 06:54:50;;;;;;;54.10;35.17;;;;;;;-0.64;100.00;152388.59;4989834;28;20044;-76
2022/11/18 06:57:15;;;;;;;50.13;34.22;;;;;;;-0.70;100.00;152374.59;4980983;28;20448;-75
2022/11/18 06:59:41;;;;;;;53.80;35.55;;;;;;;-0.58;100.00;152403.91;5003900;28;20034;-75
2022/11/18 07:02:07;;;;;;;53.92;31.30;;;;;;;-0.65;100.00;152386.09;4990766;28;20030;-75
2022/11/18 07:04:38;;;;;;;51.65;34.17;;;;;;;-0.63;100.00;152391.16;5003218;28;20108;-75
2022/11/18 07:07:07;;;;;;;54.58;35.83;;;;;;;-0.65;100.00;152386.09;5018293;28;20495;-75
2022/11/18 07:09:33;;;;;;;57.90;36.45;;;;;;;-0.63;100.00;152392.44;4986295;28;20046;-75
2022/11/18 07:11:59;;;;;;;55.45;36.58;;;;;;;-0.63;100.00;152391.16;4975814;28;20253;-75
2022/11/18 07:14:25;;;;;;;54.17;35.25;;;;;;;-0.63;100.00;152392.44;5006222;28;20481;-75
2022/11/18 07:16:50;;;;;;;59.22;37.95;;;;;;;-0.59;100.00;152402.59;4996683;28;20046;-75
2022/11/18 07:19:19;;;;;;;55.53;34.65;;;;;;;-0.62;100.00;152395.00;5006655;28;20095;-74
2022/11/18 07:21:44;;;;;;;55.78;36.35;;;;;;;-0.61;100.00;152396.25;5008435;28;20038;-74
2022/11/18 07:24:13;;;;;;;58.17;36.33;;;;;;;-0.60;100.00;152398.81;5003436;28;20029;-74
2022/11/18 07:26:38;;;;;;;56.13;35.83;;;;;;;-0.56;100.00;152409.00;5003050;28;20030;-75
2022/11/18 07:29:04;;;;;;;55.17;35.22;;;;;;;-0.56;100.00;152409.00;4987156;28;20049;-73
2022/11/18 07:31:31;;;;;;;53.45;34.13;;;;;;;-0.56;100.00;152407.75;4990383;28;20448;-75
2022/11/18 07:33:57;;;;;;;54.10;35.92;;;;;;;-0.57;100.00;152406.44;4986745;28;20138;-74
2022/11/18 07:36:25;;;;;;;57.03;36.60;;;;;;;-0.51;100.00;152420.44;5003557;28;20049;-74
2022/11/18 07:38:51;;;;;;;53.75;35.28;;;;;;;-0.52;100.00;152417.91;5007342;28;20045;-74
2022/11/18 07:41:23;;;;;;;53.70;33.67;;;;;;;-0.53;100.00;152415.34;5021674;28;20785;-75
2022/11/18 07:43:50;;;;;;;60.92;36.72;;;;;;;-0.51;100.00;152420.44;4972253;28;20042;-74
2022/11/18 07:46:23;;;;;;;58.47;35.90;;;;;;;-0.54;100.00;152412.81;4961710;28;20026;-74
2022/11/18 07:48:51;;;;;;;54.30;34.58;;;;;;;-0.54;100.00;152412.81;4987933;28;20046;-75
2022/11/18 07:51:20;;;;;;;53.72;33.88;;;;;;;-0.62;100.00;152393.75;5004409;28;20029;-75
2022/11/18 07:53:46;;;;;;;49.03;32.75;;;;;;;-0.61;100.00;152396.25;4986037;28;20069;-75
2022/11/18 07:56:13;;;;;;;50.42;32.65;;;;;;;-0.56;100.00;152407.75;4967520;28;20037;-73
2022/11/18 07:58:39;;;;;;;46.25;31.63;;;;;;;-0.57;100.00;152405.16;4993290;28;20776;-74
2022/11/18 08:01:14;;;;;;;50.17;31.00;;;;;;;-0.66;100.00;152383.50;4990334;28;20760;-74
2022/11/18 08:03:40;;;;;;;51.83;30.30;;;;;;;-0.64;100.00;152388.59;5001381;28;20030;-75
2022/11/18 08:06:08;;;;;;;46.90;28.25;;;;;;;-0.63;100.00;152392.44;4976698;28;20822;-74
2022/11/18 08:08:35;;;;;;;50.92;29.67;;;;;;;-0.65;100.00;152387.34;5009729;28;20104;-75
2022/11/18 08:11:03;;;;;;;46.40;29.05;;;;;;;-0.59;100.00;152401.34;5011664;28;20057;-74
2022/11/18 08:13:29;;;;;;;43.30;28.70;;;;;;;-0.48;100.00;152429.34;5006357;28;20030;-75
2022/11/18 08:15:55;;;;;;;40.35;28.15;;;;;;;-0.55;100.00;152411.53;5014463;28;20415;-74
2022/11/18 08:18:21;;;;;;;42.63;24.83;;;;;;;-0.53;100.00;152415.34;5009637;28;20045;-75
2022/11/18 08:20:48;;;;;;;41.45;27.00;;;;;;;-0.57;100.00;152406.44;4992881;28;20072;-75
2022/11/18 08:23:14;;;;;;;41.17;27.23;;;;;;;-0.60;100.00;152400.09;4969839;28;20041;-76
2022/11/18 08:25:42;;;;;;;38.17;27.10;;;;;;;-0.60;100.00;152400.09;4992536;28;20052;-74
2022/11/18 08:28:08;;;;;;;41.85;27.23;;;;;;;-0.67;100.00;152382.25;5006703;28;20073;-74
2022/11/18 08:30:34;;;;;;;39.03;24.83;;;;;;;-0.63;100.00;152391.16;5025330;28;20061;-75
2022/11/18 08:33:00;;;;;;;41.38;29.05;;;;;;;-0.61;100.00;152396.25;5025732;28;20058;-74
2022/11/18 08:35:27;;;;;;;41.17;28.60;;;;;;;-0.61;100.00;152397.53;4992318;28;20065;-74
2022/11/18 08:37:52;;;;;;;38.60;26.63;;;;;;;-0.58;100.00;152403.91;5006607;28;20113;-75
2022/11/18 08:40:19;;;;;;;36.20;24.50;;;;;;;-0.60;100.00;152400.09;4993215;28;20132;-74
2022/11/18 08:42:44;;;;;;;39.45;25.58;;;;;;;-0.57;100.00;152406.44;4989859;28;20049;-74
2022/11/18 08:45:10;;;;;;;31.48;20.55;;;;;;;-0.59;100.00;152402.59;4991305;28;20026;-74
2022/11/18 08:47:36;;;;;;;40.15;25.98;;;;;;;-0.55;100.00;152411.53;4991668;28;20090;-76
2022/11/18 08:50:04;;;;;;;37.28;25.83;;;;;;;-0.53;100.00;152416.59;4998564;28;20483;-75
2022/11/18 08:52:30;;;;;;;35.78;25.30;;;;;;;-0.49;100.00;152425.53;4977545;28;20041;-76
2022/11/18 08:54:55;;;;;;;36.13;24.40;;;;;;;-0.50;100.00;152424.25;4992744;28;20037;-75
2022/11/18 08:57:21;;;;;;;33.40;24.20;;;;;;;-0.46;100.00;152434.44;4992909;28;20060;-75
2022/11/18 08:59:47;;;;;;;36.47;24.80;;;;;;;-0.43;100.00;152442.09;5009543;28;20746;-75
2022/11/18 09:02:19;;;;;;;37.40;24.50;;;;;;;-0.35;100.00;152461.19;5001034;28;20373;-75
2022/11/18 09:04:49;;;;;;;33.75;23.95;;;;;;;-0.36;100.00;152458.63;5002168;28;20428;-76
2022/11/18 09:07:16;;;;;;;33.75;24.80;;;;;;;-0.33;100.00;152466.28;5004596;28;20057;-75
2022/11/18 09:09:42;;;;;;;31.88;23.25;;;;;;;-0.31;100.00;152471.38;4986514;28;20030;-74
2022/11/18 09:12:08;;;;;;;36.13;24.85;;;;;;;-0.29;100.00;152475.19;5002991;28;20401;-75
2022/11/18 09:14:34;;;;;;;33.58;23.92;;;;;;;-0.33;100.00;152466.28;5008289;28;20029;-74
2022/11/18 09:16:59;;;;;;;35.97;25.10;;;;;;;-0.31;100.00;152470.09;4989451;28;20034;-74
2022/11/18 09:19:25;;;;;;;31.52;23.23;;;;;;;-0.37;100.00;152456.09;5007914;28;20036;-74
2022/11/18 09:21:52;;;;;;;37.90;25.77;;;;;;;-0.37;100.00;152456.09;5009869;28;20096;-75
2022/11/18 09:24:17;;;;;;;38.83;26.00;;;;;;;-0.36;100.00;152457.38;4988327;28;20046;-74
2022/11/18 09:26:44;;;;;;;46.67;27.65;;;;;;;-0.43;100.00;152442.09;4984899;28;20037;-74
2022/11/18 09:29:12;;;;;;;32.58;24.08;;;;;;;-0.36;100.00;152458.63;5008152;28;20492;-76
2022/11/18 09:31:38;;;;;;;34.10;23.88;;;;;;;-0.30;100.00;152472.63;5005117;28;20049;-75
2022/11/18 09:34:04;;;;;;;32.08;22.80;;;;;;;-0.32;100.00;152468.84;5007484;28;20403;-74
2022/11/18 09:36:30;;;;;;;37.08;24.63;;;;;;;-0.31;100.00;152471.38;5004224;28;20088;-75
2022/11/18 09:38:58;;;;;;;34.97;24.33;;;;;;;-0.30;100.00;152473.94;5017540;28;20056;-75
2022/11/18 09:41:42;;;;;;;37.08;25.48;;;;;;;-0.33;100.00;152465.03;5024147;28;20108;-74
2022/11/18 09:44:26;;;;;;;34.63;24.60;;;;;;;-0.27;100.00;152481.53;4975059;28;20050;-74
2022/11/18 09:47:28;;;;;;;32.08;23.02;;;;;;;-0.25;100.00;152486.63;5006894;28;20519;-75
2022/11/18 09:49:57;;;;;;;32.25;21.73;;;;;;;-0.21;100.00;152496.88;5005456;28;20515;-74
2022/11/18 09:52:27;;;;;;;31.75;22.45;;;;;;;-0.14;100.00;152513.38;5007230;28;20041;-76
2022/11/18 09:54:53;;;;;;;30.05;21.80;;;;;;;-0.13;100.00;152515.97;5004619;28;20041;-74
2022/11/18 09:57:30;;;;;;;31.15;21.92;;;;;;;-0.12;100.00;152517.22;4987422;28;20046;-75
2022/11/18 09:59:57;;;;;;;29.10;21.27;;;;;;;-0.13;100.00;152515.97;4991019;28;20195;-75
2022/11/18 10:02:42;;;;;;;27.48;20.23;;;;;;;-0.13;100.00;152515.97;4990432;28;20049;-75
2022/11/18 10:05:20;;;;;;;34.13;22.25;;;;;;;-0.10;100.00;152522.31;4987769;28;20030;-74
2022/11/18 10:07:48;;;;;;;28.58;20.15;;;;;;;-0.08;100.00;152528.66;4986405;28;20108;-75
2022/11/18 10:10:21;;;;;;;26.40;19.80;;;;;;;-0.12;100.00;152518.47;4990846;28;20111;-74
2022/11/18 10:12:56;;;;;;;26.08;18.88;;;;;;;-0.07;100.00;152529.97;5006981;28;20036;-75
2022/11/18 10:15:36;;;;;;;26.27;19.45;;;;;;;0.02;100.00;152552.91;4989072;28;20042;-74
2022/11/18 10:18:11;;;;;;;27.45;20.02;;;;;;;0.02;100.00;152552.91;5001515;28;20128;-72
2022/11/18 10:20:59;;;;;;;27.75;19.60;;;;;;;0.09;100.00;152570.69;4977934;28;20033;-74
2022/11/18 10:23:39;;;;;;;26.42;19.58;;;;;;;0.12;100.00;152577.09;4989036;28;20109;-74
2022/11/18 10:26:05;;;;;;;26.75;18.83;;;;;;;0.15;100.00;152586.00;4987563;28;20040;-75
2022/11/18 10:28:30;;;;;;;24.15;17.90;;;;;;;0.20;100.00;152597.44;4999963;28;20029;-75
2022/11/18 10:31:08;;;;;;;26.55;18.35;;;;;;;0.24;100.00;152606.38;5007003;28;20076;-74
2022/11/18 10:33:34;;;;;;;27.20;19.50;;;;;;;0.34;100.00;152631.81;4968385;28;20118;-74
2022/11/18 10:36:23;;;;;;;26.13;19.40;;;;;;;0.36;100.00;152638.22;4990918;28;20523;-73
2022/11/18 10:39:05;;;;;;;21.77;16.75;;;;;;;0.46;100.00;152662.44;5012917;28;20499;-74
2022/11/18 10:41:38;;;;;;;21.02;16.38;;;;;;;0.46;100.00;152661.16;4996113;28;20034;-74
2022/11/18 10:44:04;;;;;;;23.52;16.60;;;;;;;0.39;100.00;152645.84;5003613;28;20030;-73
2022/11/18 10:46:38;;;;;;;21.75;16.58;;;;;;;0.40;100.00;152647.16;5006426;28;20038;-74
2022/11/18 10:49:09;;;;;;;23.02;16.73;;;;;;;0.42;100.00;152650.97;4991208;28;20034;-74
2022/11/18 10:51:36;;;;;;;22.45;16.00;;;;;;;0.56;100.00;152686.63;5006849;28;20499;-75
2022/11/18 10:54:17;;;;;;;21.02;15.02;;;;;;;0.51;100.00;152673.88;4982815;28;20065;-74
2022/11/18 10:57:05;;;;;;;21.05;16.05;;;;;;;0.51;100.00;152673.88;4976451;28;20034;-73
2022/11/18 10:59:38;;;;;;;26.08;15.73;;;;;;;0.55;100.00;152685.38;4979941;28;20037;-74
2022/11/18 11:02:25;;;;;;;19.92;14.68;;;;;;;0.52;100.00;152676.44;4997221;28;20196;-74
2022/11/18 11:04:51;;;;;;;19.38;14.95;;;;;;;0.46;100.00;152662.44;4990473;28;20049;-75
2022/11/18 11:07:24;;;;;;;17.77;13.75;;;;;;;0.46;100.00;152661.16;5007921;28;20053;-74
2022/11/18 11:10:05;;;;;;;18.95;14.38;;;;;;;0.47;100.00;152665.00;4985299;28;20061;-74
2022/11/18 11:12:46;;;;;;;17.00;12.90;;;;;;;0.45;100.00;152658.59;5004767;28;20448;-74
2022/11/18 11:15:26;;;;;;;17.90;13.98;;;;;;;0.43;100.00;152653.50;4989439;28;20052;-74
2022/11/18 11:18:41;;;;;;;15.90;12.55;;;;;;;0.51;100.00;152675.19;5006111;28;20038;-74
2022/11/18 11:21:15;;;;;;;16.88;12.35;;;;;;;0.51;100.00;152673.88;5005781;28;20072;-74
2022/11/18 11:23:42;;;;;;;15.00;11.90;;;;;;;0.49;100.00;152668.78;5014227;28;20026;-74
2022/11/18 11:26:28;;;;;;;16.05;11.73;;;;;;;0.44;100.00;152656.06;5007919;28;20543;-74